Time;durP1;ratioP1;P1;durP2;ratioP2;P2;SDS_P1;SDS_P2;PMS_P1;PMS_P2;Temp;Humidity;BMP_temperature;BMP_pressure;BME280_temperature;BME280_humidity;BME280_pressure;Samples;Min_cycle;Max_cycle;Signal;HPM_P1;HPM_P2
2022/03/18 00:00:21;;;;;;;33.53;18.53;;;;;;;4.17;54.86;102476.78;1676833;85;21136;-78
2022/03/18 00:02:52;;;;;;;32.93;18.30;;;;;;;4.08;55.08;102483.06;1676447;85;21040;-78
2022/03/18 00:05:24;;;;;;;32.30;16.67;;;;;;;3.99;54.96;102485.42;1676973;85;21024;-78
2022/03/18 00:07:52;;;;;;;27.63;16.53;;;;;;;3.95;55.16;102494.86;1676632;85;21453;-78
2022/03/18 00:10:20;;;;;;;27.20;16.73;;;;;;;3.89;55.36;102494.72;1676720;85;21487;-79
2022/03/18 00:12:51;;;;;;;26.67;16.30;;;;;;;3.79;55.57;102493.61;1676482;85;21980;-78
2022/03/18 00:15:18;;;;;;;27.07;15.78;;;;;;;3.72;55.72;102493.02;1676874;85;21032;-74
2022/03/18 00:17:46;;;;;;;28.67;16.57;;;;;;;3.66;55.97;102496.77;1676488;85;21036;-74
2022/03/18 00:20:14;;;;;;;27.80;15.70;;;;;;;3.64;56.17;102505.34;1676707;85;21033;-79
2022/03/18 00:22:43;;;;;;;27.40;16.23;;;;;;;3.58;56.24;102502.17;1676573;85;21005;-78
2022/03/18 00:25:13;;;;;;;27.95;15.90;;;;;;;3.50;56.24;102499.38;1676946;85;21066;-78
2022/03/18 00:27:43;;;;;;;24.50;15.13;;;;;;;3.43;56.43;102500.47;1676627;85;21061;-79
2022/03/18 00:30:12;;;;;;;24.60;15.68;;;;;;;3.39;56.70;102497.35;1677047;85;20993;-79
2022/03/18 00:32:40;;;;;;;25.97;15.60;;;;;;;3.32;56.99;102495.87;1676477;85;21033;-78
2022/03/18 00:35:10;;;;;;;26.90;16.40;;;;;;;3.29;57.42;102500.11;1676781;85;21052;-77
2022/03/18 00:37:39;;;;;;;29.93;15.50;;;;;;;3.23;57.39;102494.77;1676540;85;21132;-78
2022/03/18 00:40:09;;;;;;;25.60;14.73;;;;;;;3.22;57.53;102500.80;1676626;85;21056;-78
2022/03/18 00:42:37;;;;;;;33.33;17.93;;;;;;;3.12;57.63;102499.66;1676502;85;21040;-78
2022/03/18 00:45:06;;;;;;;31.30;17.60;;;;;;;3.04;57.54;102502.45;1676619;85;21079;-78
2022/03/18 00:52:52;;;;;;;25.13;15.27;;;;;;;2.89;57.96;102500.33;1660589;85;21478;-77
2022/03/18 00:55:19;;;;;;;25.23;15.60;;;;;;;2.83;58.21;102492.39;1676752;85;21538;-79
2022/03/18 00:57:46;;;;;;;26.70;16.00;;;;;;;2.76;58.43;102502.09;1676413;85;21041;-78
2022/03/18 01:00:14;;;;;;;25.93;16.00;;;;;;;2.69;58.47;102499.76;1676760;85;21033;-79
2022/03/18 01:02:41;;;;;;;25.53;14.87;;;;;;;2.64;58.57;102507.80;1676396;85;21180;-78
2022/03/18 01:05:08;;;;;;;27.33;15.73;;;;;;;2.60;58.77;102509.83;1676693;85;21088;-78
2022/03/18 01:07:36;;;;;;;27.90;15.63;;;;;;;2.61;59.01;102516.78;1676438;85;20917;-77
2022/03/18 01:10:04;;;;;;;26.70;15.20;;;;;;;2.58;59.20;102514.97;1676675;85;21005;-72
2022/03/18 01:12:31;;;;;;;25.13;14.97;;;;;;;2.55;59.18;102520.06;1676426;85;21539;-78
2022/03/18 01:15:01;;;;;;;27.23;16.00;;;;;;;2.53;59.34;102525.61;1676589;85;21173;-78
2022/03/18 01:17:28;;;;;;;27.42;15.98;;;;;;;2.56;59.47;102520.94;1676748;85;21021;-78
2022/03/18 01:19:55;;;;;;;26.17;15.57;;;;;;;2.56;59.64;102521.81;1676737;85;21044;-78
2022/03/18 01:22:23;;;;;;;32.43;16.47;;;;;;;2.53;59.44;102529.48;1676359;85;21009;-78
2022/03/18 01:24:50;;;;;;;34.40;17.33;;;;;;;2.49;59.38;102535.39;1676864;85;21088;-78
2022/03/18 01:27:18;;;;;;;36.17;17.70;;;;;;;2.43;59.49;102536.50;1676337;85;21140;-78
2022/03/18 01:29:47;;;;;;;32.00;16.73;;;;;;;2.41;59.54;102525.22;1676577;85;21555;-78
2022/03/18 01:32:15;;;;;;;32.73;16.87;;;;;;;2.42;59.52;102528.28;1676626;85;21037;-78
2022/03/18 01:34:42;;;;;;;34.90;17.20;;;;;;;2.39;59.56;102525.61;1676528;85;21024;-74
2022/03/18 01:37:09;;;;;;;36.30;18.53;;;;;;;2.33;59.61;102522.41;1676451;85;21163;-78
2022/03/18 01:39:36;;;;;;;33.70;17.90;;;;;;;2.30;59.66;102532.67;1676327;85;21280;-71
2022/03/18 01:42:04;;;;;;;37.67;18.93;;;;;;;2.26;59.95;102529.94;1675941;85;20949;-73
2022/03/18 01:44:38;;;;;;;34.27;16.77;;;;;;;2.25;60.04;102538.54;1676350;85;21071;-78
2022/03/18 01:47:06;;;;;;;30.53;16.60;;;;;;;2.22;60.08;102544.08;1657545;86;21026;-79
2022/03/18 01:49:33;;;;;;;28.40;16.53;;;;;;;2.18;60.14;102551.25;1704085;84;20993;-79
2022/03/18 01:52:01;;;;;;;29.93;16.50;;;;;;;2.20;60.30;102552.19;1703736;84;21138;-79
2022/03/18 01:54:44;;;;;;;31.43;16.87;;;;;;;2.22;60.48;102549.25;1691686;84;21459;-79
2022/03/18 01:57:19;;;;;;;26.60;16.50;;;;;;;2.22;60.86;102545.37;1689033;85;21036;-80
2022/03/18 01:59:47;;;;;;;28.80;16.67;;;;;;;2.19;60.83;102545.27;1689311;85;21044;-80
2022/03/18 02:02:15;;;;;;;27.70;17.37;;;;;;;2.17;60.99;102548.64;1688991;85;21478;-80
2022/03/18 02:04:45;;;;;;;27.77;16.93;;;;;;;2.13;61.07;102554.53;1689196;85;21158;-81
2022/03/18 02:07:15;;;;;;;26.93;15.98;;;;;;;2.08;61.16;102557.38;1688847;85;21043;-80
2022/03/18 02:09:43;;;;;;;31.23;16.52;;;;;;;2.09;61.26;102563.03;1689339;85;21052;-81
2022/03/18 02:12:11;;;;;;;28.97;17.47;;;;;;;2.12;61.31;102561.84;1688960;85;21072;-80
2022/03/18 02:14:44;;;;;;;32.00;17.43;;;;;;;2.13;61.12;102560.99;1689212;85;21004;-79
2022/03/18 02:17:15;;;;;;;29.73;17.37;;;;;;;2.14;61.08;102557.17;1688949;85;21541;-80
2022/03/18 02:19:44;;;;;;;31.30;18.10;;;;;;;2.13;60.99;102557.11;1688887;85;21480;-80
2022/03/18 02:22:25;;;;;;;34.30;19.40;;;;;;;2.17;60.90;102564.16;1689246;85;21036;-80
2022/03/18 02:24:55;;;;;;;31.52;17.48;;;;;;;2.20;61.00;102569.43;1689127;85;27367;-79
2022/03/18 02:27:22;;;;;;;30.62;17.80;;;;;;;2.26;60.80;102571.33;1689350;85;21521;-79
2022/03/18 02:29:50;;;;;;;30.30;17.07;;;;;;;2.30;61.08;102572.78;1689001;85;22194;-79
2022/03/18 02:32:18;;;;;;;28.33;16.43;;;;;;;2.35;60.93;102581.55;1689131;85;20920;-79
2022/03/18 02:34:45;;;;;;;29.83;17.03;;;;;;;2.41;60.50;102580.47;1688931;85;21000;-79
2022/03/18 02:37:12;;;;;;;27.47;16.77;;;;;;;2.51;60.91;102579.45;1689170;85;21036;-80
2022/03/18 02:39:39;;;;;;;30.80;18.07;;;;;;;2.55;61.07;102590.35;1688919;85;21067;-80
2022/03/18 02:42:07;;;;;;;28.27;17.13;;;;;;;2.59;61.53;102590.92;1686767;85;21280;-72
2022/03/18 02:44:34;;;;;;;27.37;16.33;;;;;;;2.62;61.78;102598.78;1681565;85;21473;-80
2022/03/18 02:47:01;;;;;;;28.90;16.27;;;;;;;2.60;61.70;102596.55;1681751;85;21020;-79
2022/03/18 02:49:29;;;;;;;27.07;15.30;;;;;;;2.61;61.86;102599.63;1681504;85;21005;-79
2022/03/18 02:51:56;;;;;;;26.50;16.57;;;;;;;2.61;61.75;102603.52;1681740;85;21537;-79
2022/03/18 02:54:24;;;;;;;27.27;15.33;;;;;;;2.57;61.95;102597.76;1681517;85;21088;-79
2022/03/18 02:56:51;;;;;;;32.23;16.63;;;;;;;2.58;61.99;102608.59;1681700;85;20977;-78
2022/03/18 02:59:18;;;;;;;29.27;17.60;;;;;;;2.54;61.84;102603.72;1681547;85;21001;-79
2022/03/18 03:01:45;;;;;;;67.93;30.03;;;;;;;2.50;61.79;102604.89;1682026;85;21585;-79
2022/03/18 03:04:15;;;;;;;76.73;32.97;;;;;;;2.48;61.71;102607.84;1681772;85;21021;-80
2022/03/18 03:09:28;;;;;;;58.07;26.90;;;;;;;2.42;61.79;102618.88;1681679;85;20952;-79
2022/03/18 03:11:56;;;;;;;39.03;20.47;;;;;;;2.41;61.73;102624.47;1681974;85;21422;-79
2022/03/18 03:14:23;;;;;;;37.17;19.53;;;;;;;2.43;61.70;102625.38;1681740;85;21016;-79
2022/03/18 03:16:51;;;;;;;39.13;20.37;;;;;;;2.41;61.85;102621.88;1681919;85;21009;-80
2022/03/18 03:19:17;;;;;;;37.50;18.30;;;;;;;2.40;61.67;102627.87;1681720;85;21180;-80
2022/03/18 03:21:44;;;;;;;31.80;17.37;;;;;;;2.41;61.65;102628.36;1681857;85;21004;-80
2022/03/18 03:24:12;;;;;;;25.83;15.40;;;;;;;2.42;61.71;102633.98;1681622;85;21033;-79
2022/03/18 03:26:39;;;;;;;27.80;15.73;;;;;;;2.41;61.32;102633.53;1681963;85;22057;-79
2022/03/18 03:29:07;;;;;;;27.57;16.73;;;;;;;2.43;61.40;102633.56;1681719;85;21029;-79
2022/03/18 03:31:34;;;;;;;28.73;17.03;;;;;;;2.41;61.28;102631.33;1681858;85;21555;-78
2022/03/18 03:34:02;;;;;;;25.90;15.77;;;;;;;2.39;61.47;102632.59;1681660;85;21345;-79
2022/03/18 03:36:32;;;;;;;29.37;16.67;;;;;;;2.37;61.40;102630.36;1681877;85;21487;-79
2022/03/18 03:38:59;;;;;;;29.82;16.15;;;;;;;2.34;61.34;102636.73;1681930;85;21235;-79
2022/03/18 03:41:26;;;;;;;28.27;15.87;;;;;;;2.31;61.34;102643.11;1681918;85;21351;-79
2022/03/18 03:43:54;;;;;;;27.63;15.60;;;;;;;2.29;61.35;102647.34;1681605;85;21144;-79
2022/03/18 03:46:21;;;;;;;27.93;15.80;;;;;;;2.29;61.29;102647.77;1681555;85;20957;-79
2022/03/18 03:48:48;;;;;;;29.30;15.67;;;;;;;2.29;61.19;102651.23;1681622;85;21053;-80
2022/03/18 03:51:14;;;;;;;29.90;15.67;;;;;;;2.34;61.20;102650.97;1681867;85;21056;-80
2022/03/18 03:53:41;;;;;;;23.93;14.53;;;;;;;2.42;61.35;102655.98;1681709;85;21032;-80
2022/03/18 03:56:08;;;;;;;26.47;14.70;;;;;;;2.49;61.54;102658.34;1681961;85;21114;-79
2022/03/18 03:58:36;;;;;;;23.80;14.93;;;;;;;2.53;61.27;102658.05;1681540;85;21382;-79
2022/03/18 04:01:04;;;;;;;29.20;15.37;;;;;;;2.57;60.97;102662.48;1681937;85;21111;-79
2022/03/18 04:03:32;;;;;;;28.57;15.63;;;;;;;2.61;60.79;102657.46;1681704;85;20994;-80
2022/03/18 04:06:00;;;;;;;25.70;14.93;;;;;;;2.64;60.69;102660.14;1681873;85;21012;-79
2022/03/18 04:08:29;;;;;;;26.03;14.47;;;;;;;2.66;60.57;102665.35;1681558;85;21142;-79
2022/03/18 04:10:56;;;;;;;25.87;15.53;;;;;;;2.64;60.46;102667.04;1681886;85;21032;-78
2022/03/18 04:13:23;;;;;;;24.83;14.97;;;;;;;2.64;60.47;102673.52;1681523;85;21013;-78
2022/03/18 04:15:50;;;;;;;24.93;14.83;;;;;;;2.62;60.43;102672.16;1681655;85;21066;-78
2022/03/18 04:18:17;;;;;;;27.00;15.77;;;;;;;2.57;60.48;102671.55;1681402;85;21020;-78
2022/03/18 04:20:44;;;;;;;25.77;15.77;;;;;;;2.54;60.39;102667.14;1681684;85;21037;-78
2022/03/18 04:23:12;;;;;;;24.67;14.90;;;;;;;2.52;60.26;102673.09;1681815;85;21020;-79
2022/03/18 04:25:40;;;;;;;26.60;15.40;;;;;;;2.51;60.43;102676.11;1681592;85;21021;-78
2022/03/18 04:28:07;;;;;;;27.40;15.57;;;;;;;2.51;59.79;102675.23;1681946;85;21388;-78
2022/03/18 04:30:35;;;;;;;26.90;15.00;;;;;;;2.54;59.73;102675.33;1681607;85;21045;-77
2022/03/18 04:33:02;;;;;;;30.23;15.03;;;;;;;2.55;59.28;102683.55;1681885;85;21800;-74
2022/03/18 04:35:31;;;;;;;26.73;14.40;;;;;;;2.58;58.95;102689.73;1681639;85;21009;-78
2022/03/18 04:37:59;;;;;;;27.67;16.15;;;;;;;2.63;59.03;102689.86;1682057;85;20985;-78
2022/03/18 04:40:26;;;;;;;26.37;15.97;;;;;;;2.65;59.00;102696.84;1681641;85;21080;-76
2022/03/18 04:42:54;;;;;;;26.30;15.90;;;;;;;2.63;58.83;102697.23;1683989;85;21277;-79
2022/03/18 04:45:22;;;;;;;27.57;15.23;;;;;;;2.65;58.83;102705.03;1688986;85;21140;-78
2022/03/18 04:47:49;;;;;;;30.83;15.77;;;;;;;2.65;58.42;102705.91;1689022;85;20957;-79
2022/03/18 04:50:16;;;;;;;25.23;14.77;;;;;;;2.70;58.48;102710.38;1688984;85;21008;-78
2022/03/18 04:52:43;;;;;;;26.87;14.57;;;;;;;2.68;58.44;102712.48;1689248;85;21029;-78
2022/03/18 04:55:10;;;;;;;27.90;14.53;;;;;;;2.68;58.33;102724.13;1688995;85;21084;-78
2022/03/18 04:57:38;;;;;;;30.23;15.40;;;;;;;2.64;58.43;102728.76;1689287;85;21295;-78
2022/03/18 05:00:07;;;;;;;29.67;14.80;;;;;;;2.60;58.75;102728.17;1689014;85;21481;-78
2022/03/18 05:02:38;;;;;;;27.40;14.63;;;;;;;2.62;58.62;102736.01;1689183;85;22127;-78
2022/03/18 05:05:17;;;;;;;26.07;15.65;;;;;;;2.61;58.78;102734.27;1689113;85;21044;-78
2022/03/18 05:07:40;;;;;;;27.70;15.27;;;;;;;2.56;58.88;102735.81;1687353;85;21016;-78
2022/03/18 05:10:09;;;;;;;25.47;14.77;;;;;;;2.52;58.91;102741.70;1688968;85;21283;-79
2022/03/18 05:12:38;;;;;;;23.73;14.40;;;;;;;2.52;58.99;102742.99;1689363;85;21020;-78
2022/03/18 05:15:08;;;;;;;27.63;15.90;;;;;;;2.48;59.15;102743.31;1689051;85;21008;-80
2022/03/18 05:17:37;;;;;;;27.87;14.68;;;;;;;2.45;59.16;102745.80;1689566;85;21032;-80
2022/03/18 05:20:07;;;;;;;26.90;14.83;;;;;;;2.42;59.33;102749.16;1688968;85;21036;-78
2022/03/18 05:22:34;;;;;;;24.00;14.85;;;;;;;2.37;59.67;102754.59;1689273;85;22127;-79
2022/03/18 05:25:02;;;;;;;24.73;14.23;;;;;;;2.35;59.77;102754.07;1712948;83;20985;-73
2022/03/18 05:27:29;;;;;;;29.77;15.70;;;;;;;2.34;59.80;102753.62;1715779;83;21502;-74
2022/03/18 05:29:56;;;;;;;29.27;15.57;;;;;;;2.33;59.91;102756.63;1705525;82;20999;-73
2022/03/18 05:32:23;;;;;;;26.43;15.03;;;;;;;2.37;60.11;102761.06;1726461;82;21126;-74
2022/03/18 05:34:50;;;;;;;26.83;16.07;;;;;;;2.39;60.08;102766.31;1716927;83;21107;-74
2022/03/18 05:37:17;;;;;;;35.33;18.10;;;;;;;2.43;60.32;102767.73;1696312;83;21030;-74
2022/03/18 05:39:44;;;;;;;32.63;17.57;;;;;;;2.46;60.47;102776.90;1687646;85;21105;-73
2022/03/18 05:42:11;;;;;;;30.37;16.60;;;;;;;2.51;60.73;102780.95;1687545;85;20988;-73
2022/03/18 05:44:38;;;;;;;32.37;16.07;;;;;;;2.55;60.70;102778.05;1699042;84;21540;-73
2022/03/18 05:47:05;;;;;;;30.47;17.20;;;;;;;2.56;60.66;102777.23;1697395;84;21228;-73
2022/03/18 05:49:33;;;;;;;29.60;16.30;;;;;;;2.60;60.56;102779.95;1697376;83;20991;-74
2022/03/18 05:52:00;;;;;;;26.90;15.43;;;;;;;2.63;60.40;102778.80;1697768;84;21033;-73
2022/03/18 05:54:29;;;;;;;44.93;21.73;;;;;;;2.66;60.21;102784.08;1699966;84;21072;-77
2022/03/18 05:56:56;;;;;;;46.00;21.67;;;;;;;2.71;60.04;102784.62;1697679;84;21023;-73
2022/03/18 05:59:30;;;;;;;30.23;15.23;;;;;;;2.75;60.06;102786.51;1697401;84;21153;-73
2022/03/18 06:01:59;;;;;;;25.57;13.93;;;;;;;2.78;59.48;102787.48;1710433;83;20905;-73
2022/03/18 06:04:31;;;;;;;25.80;14.03;;;;;;;2.81;59.05;102792.77;1736363;82;21023;-73
2022/03/18 06:06:58;;;;;;;28.23;14.97;;;;;;;2.87;58.93;102800.73;1731867;82;21078;-74
2022/03/18 06:12:12;;;;;;;28.77;14.27;;;;;;;2.95;58.49;102805.30;1728596;82;21189;-74
2022/03/18 06:14:39;;;;;;;26.30;14.40;;;;;;;2.99;58.31;102806.72;1730543;82;20983;-73
2022/03/18 06:17:06;;;;;;;25.40;13.80;;;;;;;3.01;57.86;102809.37;1730345;82;21054;-74
2022/03/18 06:19:35;;;;;;;23.77;14.07;;;;;;;3.03;57.91;102820.67;1732695;81;21095;-75
2022/03/18 06:22:02;;;;;;;26.53;14.20;;;;;;;3.07;57.83;102822.52;1729245;82;21027;-73
2022/03/18 06:24:30;;;;;;;26.20;14.17;;;;;;;3.09;57.59;102824.34;1730004;82;21496;-74
2022/03/18 06:26:58;;;;;;;23.50;13.97;;;;;;;3.15;57.51;102830.55;1736704;81;20999;-75
2022/03/18 06:29:25;;;;;;;27.87;14.70;;;;;;;3.18;57.35;102831.95;1732777;81;21015;-74
2022/03/18 06:31:52;;;;;;;24.70;13.73;;;;;;;3.21;57.16;102835.51;1732784;81;21068;-75
2022/03/18 06:34:20;;;;;;;26.57;14.63;;;;;;;3.24;57.02;102837.32;1734138;82;21069;-74
2022/03/18 06:36:49;;;;;;;26.13;13.93;;;;;;;3.26;57.03;102840.43;1724821;83;21048;-73
2022/03/18 06:39:16;;;;;;;26.73;15.23;;;;;;;3.29;56.98;102839.23;1717682;83;21038;-73
2022/03/18 06:41:43;;;;;;;30.73;15.47;;;;;;;3.33;56.93;102846.29;1700091;82;21012;-74
2022/03/18 06:44:10;;;;;;;27.57;14.93;;;;;;;3.35;56.92;102857.59;1718399;82;21043;-74
2022/03/18 06:46:39;;;;;;;26.17;15.00;;;;;;;3.40;56.76;102859.44;1685540;85;21487;-74
2022/03/18 06:49:06;;;;;;;28.53;15.27;;;;;;;3.42;56.70;102865.56;1696519;84;21149;-73
2022/03/18 06:51:34;;;;;;;28.20;15.50;;;;;;;3.47;56.66;102867.89;1696373;84;21021;-74
2022/03/18 06:54:01;;;;;;;27.73;15.30;;;;;;;3.49;56.63;102869.70;1714540;83;21008;-75
2022/03/18 06:56:30;;;;;;;29.40;15.47;;;;;;;3.53;56.63;102875.86;1685451;83;21030;-73
2022/03/18 06:58:58;;;;;;;27.67;15.40;;;;;;;3.57;56.38;102879.91;1684730;83;21110;-73
2022/03/18 07:01:26;;;;;;;27.33;15.23;;;;;;;3.63;56.52;102884.79;1698407;83;21891;-73
2022/03/18 07:03:53;;;;;;;35.23;19.03;;;;;;;3.70;56.42;102883.73;1712198;83;21027;-72
2022/03/18 07:06:20;;;;;;;26.57;15.80;;;;;;;3.78;56.45;102889.17;1718903;83;20959;-74
2022/03/18 07:08:47;;;;;;;24.97;16.27;;;;;;;3.82;56.20;102890.14;1707077;84;21028;-73
2022/03/18 07:11:14;;;;;;;25.23;15.40;;;;;;;3.84;55.92;102892.38;1725733;83;21059;-74
2022/03/18 07:13:43;;;;;;;26.67;15.20;;;;;;;3.88;55.96;102899.01;1695075;84;21037;-73
2022/03/18 07:18:56;;;;;;;28.17;15.13;;;;;;;4.01;55.90;102897.22;1725795;83;21063;-74
2022/03/18 07:21:23;;;;;;;29.73;15.07;;;;;;;4.10;55.75;102899.24;1695504;84;21012;-74
2022/03/18 07:23:49;;;;;;;26.80;15.03;;;;;;;4.17;55.55;102901.16;1718568;83;21022;-74
2022/03/18 07:26:17;;;;;;;24.77;14.07;;;;;;;4.27;55.46;102905.31;1704782;84;21103;-73
2022/03/18 07:28:43;;;;;;;23.77;14.23;;;;;;;4.35;55.27;102910.31;1717772;83;20939;-73
2022/03/18 07:31:11;;;;;;;26.70;14.43;;;;;;;4.42;55.02;102907.07;1717672;83;21505;-78
2022/03/18 07:33:38;;;;;;;26.63;14.67;;;;;;;4.51;54.94;102912.52;1717858;83;21070;-76
2022/03/18 07:36:05;;;;;;;24.27;14.60;;;;;;;4.60;54.75;102919.68;1717722;83;21042;-78
2022/03/18 07:38:32;;;;;;;23.13;14.33;;;;;;;4.69;54.69;102913.03;1718116;83;21122;-78
2022/03/18 07:41:00;;;;;;;26.57;13.43;;;;;;;4.77;54.43;102912.38;1717910;83;20900;-79
2022/03/18 07:43:27;;;;;;;28.07;14.67;;;;;;;4.81;54.06;102915.51;1716668;83;21087;-79
2022/03/18 07:45:55;;;;;;;25.57;14.60;;;;;;;4.87;53.83;102917.84;1710185;83;21534;-81
2022/03/18 07:48:26;;;;;;;26.13;14.23;;;;;;;4.94;53.62;102928.00;1710298;83;21736;-80
2022/03/18 07:50:51;;;;;;;38.77;19.03;;;;;;;5.04;53.43;102930.41;1710253;82;21959;-80
2022/03/18 07:53:18;;;;;;;27.60;15.57;;;;;;;5.08;52.94;102931.84;1710427;82;21036;-77
2022/03/18 07:55:45;;;;;;;21.23;13.33;;;;;;;5.18;53.08;102932.06;1709864;83;21116;-78
2022/03/18 07:58:12;;;;;;;23.77;14.40;;;;;;;5.28;52.91;102934.07;1717238;83;21054;-79
2022/03/18 08:00:39;;;;;;;24.20;14.43;;;;;;;5.36;52.72;102938.63;1686666;85;21062;-77
2022/03/18 08:03:06;;;;;;;27.10;14.53;;;;;;;5.44;52.58;102944.02;1696800;82;21106;-78
2022/03/18 08:05:33;;;;;;;21.83;13.00;;;;;;;5.51;52.39;102948.52;1706818;82;20918;-77
2022/03/18 08:07:59;;;;;;;25.77;15.47;;;;;;;5.61;52.19;102953.54;1708890;83;21566;-76
2022/03/18 08:10:27;;;;;;;20.40;13.60;;;;;;;5.70;52.13;102948.55;1708753;84;21481;-76
2022/03/18 08:12:54;;;;;;;25.30;14.30;;;;;;;5.76;51.95;102951.32;1708924;84;21068;-76
2022/03/18 08:15:22;;;;;;;26.20;14.70;;;;;;;5.79;51.65;102950.09;1708790;84;21363;-78
2022/03/18 08:17:53;;;;;;;22.43;13.93;;;;;;;5.88;51.63;102955.92;1708538;83;21439;-80
2022/03/18 08:20:19;;;;;;;25.23;14.33;;;;;;;5.91;51.13;102959.90;1708277;83;21040;-77
2022/03/18 08:22:48;;;;;;;22.10;13.93;;;;;;;5.93;51.07;102966.42;1708798;82;21485;-80
2022/03/18 08:25:15;;;;;;;24.53;14.33;;;;;;;5.99;50.99;102965.33;1710346;83;21455;-79
2022/03/18 08:27:42;;;;;;;26.47;14.90;;;;;;;6.09;50.91;102975.08;1710174;83;21184;-77
2022/03/18 08:30:14;;;;;;;26.30;14.33;;;;;;;6.17;50.77;102973.96;1708732;83;21058;-76
2022/03/18 08:32:41;;;;;;;24.83;14.27;;;;;;;6.24;50.46;102977.17;1708587;84;21025;-77
2022/03/18 08:35:09;;;;;;;20.83;13.73;;;;;;;6.34;50.58;102984.75;1708908;84;21485;-81
2022/03/18 08:40:24;;;;;;;25.67;14.30;;;;;;;6.51;50.14;102991.19;1708937;84;21189;-83
2022/03/18 08:42:51;;;;;;;24.07;14.20;;;;;;;6.64;49.84;102993.64;1707680;83;21479;-80
2022/03/18 08:45:19;;;;;;;28.13;14.27;;;;;;;6.68;49.21;102994.19;1716757;83;21471;-84
2022/03/18 08:47:46;;;;;;;26.10;15.90;;;;;;;6.67;49.27;102995.88;1719141;83;21009;-81
2022/03/18 08:50:14;;;;;;;22.47;14.30;;;;;;;6.78;49.46;102992.63;1720728;82;21008;-79
2022/03/18 08:52:42;;;;;;;27.40;16.33;;;;;;;6.88;49.19;102999.80;1683890;84;21092;-77
2022/03/18 08:55:09;;;;;;;24.93;14.57;;;;;;;6.93;48.87;103002.94;1687703;84;21059;-77
2022/03/18 08:57:37;;;;;;;23.53;14.97;;;;;;;7.03;49.02;103004.42;1714940;83;21026;-79
2022/03/18 09:00:07;;;;;;;25.63;14.77;;;;;;;7.15;48.76;103006.84;1700658;84;21039;-76
2022/03/18 09:02:37;;;;;;;25.82;15.08;;;;;;;7.22;48.63;103010.44;1703596;83;21031;-76
2022/03/18 09:05:07;;;;;;;25.75;14.85;;;;;;;7.27;48.40;103013.14;1719265;81;21120;-76
2022/03/18 09:07:34;;;;;;;;;;;;;;;7.34;48.37;103017.60;1719288;83;21438;-77
2022/03/18 09:10:04;;;;;;;26.87;16.17;;;;;;;7.44;48.03;103014.75;1721241;83;20506;-76
2022/03/18 09:12:31;;;;;;;26.20;16.07;;;;;;;7.46;47.69;103015.66;1720598;82;20993;-79
2022/03/18 09:15:03;;;;;;;25.43;15.93;;;;;;;7.44;47.60;103024.75;1716590;83;21036;-80
2022/03/18 09:17:29;;;;;;;29.60;15.70;;;;;;;7.49;47.52;103032.25;1718797;83;22079;-78
2022/03/18 09:19:57;;;;;;;30.80;15.87;;;;;;;7.53;47.25;103027.52;1719248;83;21032;-75
2022/03/18 09:22:24;;;;;;;25.20;14.87;;;;;;;7.56;47.14;103034.52;1719228;83;20914;-77
2022/03/18 09:24:52;;;;;;;24.60;15.63;;;;;;;7.63;47.24;103031.19;1719004;83;21020;-77
2022/03/18 09:27:19;;;;;;;25.63;15.63;;;;;;;7.76;47.43;103025.72;1719365;83;21001;-77
2022/03/18 09:29:46;;;;;;;27.67;16.10;;;;;;;7.91;47.19;103022.51;1719064;83;21139;-77
2022/03/18 09:32:13;;;;;;;24.80;15.60;;;;;;;7.98;46.99;103025.25;1719296;83;21494;-77
2022/03/18 09:34:42;;;;;;;23.93;15.40;;;;;;;7.98;46.75;103024.34;1719179;83;21089;-77
2022/03/18 09:37:09;;;;;;;25.90;15.70;;;;;;;8.10;46.87;103031.08;1719246;83;21573;-77
2022/03/18 09:39:37;;;;;;;24.73;14.93;;;;;;;8.22;46.92;103029.07;1719001;83;21497;-77
2022/03/18 09:42:05;;;;;;;22.63;15.47;;;;;;;8.37;46.99;103033.63;1719297;83;21159;-77
2022/03/18 09:44:36;;;;;;;26.93;16.30;;;;;;;8.51;46.74;103029.94;1718830;83;21017;-77
2022/03/18 09:47:07;;;;;;;26.43;16.80;;;;;;;8.58;46.54;103032.66;1718872;83;21115;-78
2022/03/18 09:49:36;;;;;;;;;;;;;;;8.67;46.21;103031.50;1720569;83;21072;-77
2022/03/18 09:52:06;;;;;;;28.73;15.97;;;;;;;8.77;45.76;103031.17;1719194;83;20727;-77
2022/03/18 09:54:34;;;;;;;26.80;16.60;;;;;;;8.90;46.00;103035.70;1718887;83;21216;-77
2022/03/18 09:57:03;;;;;;;26.43;16.13;;;;;;;9.05;45.86;103036.73;1719230;83;21013;-77
2022/03/18 09:59:30;;;;;;;24.97;16.10;;;;;;;9.24;46.02;103036.52;1719071;83;21040;-77
2022/03/18 10:02:27;;;;;;;28.93;17.90;;;;;;;9.51;45.77;103034.17;1719285;83;21033;-77
2022/03/18 10:05:01;;;;;;;28.27;17.50;;;;;;;9.72;45.45;103035.22;1719083;83;21036;-77
2022/03/18 10:07:29;;;;;;;29.63;18.07;;;;;;;9.86;45.01;103042.76;1719079;83;21085;-77
2022/03/18 10:10:15;;;;;;;28.00;17.63;;;;;;;9.93;44.55;103041.08;1719252;82;21036;-78
2022/03/18 10:12:47;;;;;;;29.20;15.70;;;;;;;10.00;44.67;103043.77;1691387;84;20997;-77
2022/03/18 10:15:30;;;;;;;25.17;16.53;;;;;;;10.13;44.36;103051.27;1692157;84;21020;-77
2022/03/18 10:17:58;;;;;;;24.07;17.10;;;;;;;10.20;44.28;103051.77;1692097;84;21005;-77
2022/03/18 10:20:40;;;;;;;22.77;17.13;;;;;;;10.37;44.15;103053.22;1692009;84;21175;-77
2022/03/18 10:23:21;;;;;;;25.83;18.13;;;;;;;10.55;44.07;103056.81;1691808;84;21486;-77
2022/03/18 10:25:54;;;;;;;25.13;17.13;;;;;;;10.75;43.93;103054.28;1692060;84;21433;-77
2022/03/18 10:28:41;;;;;;;23.95;17.05;;;;;;;10.91;43.50;103059.61;1691655;84;21007;-77
2022/03/18 10:31:21;;;;;;;28.13;18.20;;;;;;;11.05;43.24;103066.22;1693318;82;21032;-78
2022/03/18 10:37:11;;;;;;;26.48;16.87;;;;;;;11.27;42.74;103069.80;1720804;83;21302;-77
2022/03/18 10:39:48;;;;;;;27.30;17.03;;;;;;;11.35;42.42;103066.75;1720564;83;21020;-77
2022/03/18 10:42:19;;;;;;;26.55;17.57;;;;;;;11.58;42.32;103064.19;1720479;83;21044;-76
2022/03/18 10:44:57;;;;;;;;;;;;;;;11.91;41.84;103061.59;1723115;83;21028;-77
2022/03/18 10:47:34;;;;;;;26.82;17.57;;;;;;;12.19;41.22;103059.41;1720282;83;21141;-77
2022/03/18 10:50:13;;;;;;;25.15;17.90;;;;;;;12.48;41.43;103063.28;1720296;83;20985;-78
2022/03/18 10:52:52;;;;;;;25.00;17.35;;;;;;;12.77;40.96;103068.02;1714223;82;20985;-77
2022/03/18 10:55:26;;;;;;;27.20;19.20;;;;;;;12.96;40.82;103068.38;1694578;83;20997;-77
2022/03/18 10:58:00;;;;;;;25.50;16.97;;;;;;;13.21;40.63;103070.89;1719965;83;21028;-77
2022/03/18 11:00:31;;;;;;;26.75;18.15;;;;;;;13.40;40.31;103064.67;1720500;83;21094;-77
2022/03/18 11:03:00;;;;;;;28.45;18.65;;;;;;;13.53;39.87;103066.80;1720522;83;21579;-77
2022/03/18 11:05:35;;;;;;;25.60;18.30;;;;;;;13.63;39.41;103065.81;1720680;83;21028;-77
2022/03/18 11:08:06;;;;;;;27.07;17.60;;;;;;;13.84;39.42;103059.07;1720487;83;21039;-77
2022/03/18 11:13:27;;;;;;;26.10;16.82;;;;;;;14.36;38.94;103060.36;1720240;83;21815;-78
2022/03/18 11:15:56;;;;;;;23.70;16.73;;;;;;;14.50;38.26;103063.72;1720704;83;21005;-77
2022/03/18 11:18:31;;;;;;;26.40;17.32;;;;;;;14.58;38.04;103062.36;1720603;83;20947;-77
2022/03/18 11:20:57;;;;;;;25.65;17.67;;;;;;;14.80;38.01;103059.02;1719683;83;20991;-78
2022/03/18 11:23:24;;;;;;;28.73;16.37;;;;;;;14.95;37.53;103064.55;1720621;83;21028;-78
2022/03/18 11:25:56;;;;;;;19.48;13.78;;;;;;;15.15;37.46;103056.34;1720484;82;21111;-76
2022/03/18 11:28:24;;;;;;;16.60;12.45;;;;;;;15.29;36.84;103058.34;1740465;82;21409;-77
2022/03/18 11:31:01;;;;;;;16.48;11.73;;;;;;;15.42;36.46;103060.82;1743390;82;20988;-76
2022/03/18 11:33:29;;;;;;;21.62;16.62;;;;;;;15.59;35.84;103066.27;1739897;81;20992;-77
2022/03/18 11:36:04;;;;;;;19.70;13.22;;;;;;;15.72;35.42;103066.13;1743362;82;21059;-78
2022/03/18 11:39:02;;;;;;;21.48;12.15;;;;;;;15.85;35.04;103068.96;1720647;83;21124;-78
2022/03/18 11:41:53;;;;;;;15.18;11.35;;;;;;;15.94;34.54;103060.03;1713113;83;21556;-78
2022/03/18 11:44:45;;;;;;;14.03;10.72;;;;;;;16.03;34.34;103058.53;1712981;83;21013;-78
2022/03/18 11:47:30;;;;;;;15.15;11.03;;;;;;;16.30;34.07;103062.92;1713087;83;20910;-78